Time;durP1;ratioP1;P1;durP2;ratioP2;P2;SDS_P1;SDS_P2;PMS_P1;PMS_P2;Temp;Humidity;BMP_temperature;BMP_pressure;BME280_temperature;BME280_humidity;BME280_pressure;Samples;Min_cycle;Max_cycle;Signal;HPM_P1;HPM_P2
2022/09/03 00:01:23;;;;;;;;;;;;;;;22.42;49.87;101436.13;5034088;28;4011;-65
2022/09/03 00:03:51;;;;;;;;;;;;;;;22.42;49.81;101433.22;5034765;28;4399;-66
2022/09/03 00:06:30;;;;;;;;;;;;;;;22.40;49.82;101431.00;5047376;28;4075;-65
2022/09/03 00:09:00;;;;;;;;;;;;;;;22.39;49.65;101429.50;5035944;28;4190;-65
2022/09/03 00:11:46;;;;;;;;;;;;;;;22.41;49.74;101434.63;5050672;28;4186;-64
2022/09/03 00:14:14;;;;;;;;;;;;;;;22.38;50.08;101423.00;5037892;28;4202;-65
2022/09/03 00:16:43;;;;;;;;;;;;;;;22.38;49.74;101428.03;5050541;28;4232;-63
2022/09/03 00:19:09;;;;;;;;;;;;;;;22.38;49.91;101425.16;5045127;28;4597;-67
2022/09/03 00:21:36;;;;;;;;;;;;;;;22.39;50.04;101438.16;5033052;28;4518;-66
2022/09/03 00:24:03;;;;;;;;;;;;;;;22.38;49.78;101423.00;5038185;28;4351;-66
2022/09/03 00:26:30;;;;;;;;;;;;;;;22.38;49.84;101433.81;5050001;28;4052;-66
2022/09/03 00:28:58;;;;;;;;;;;;;;;22.38;49.98;101433.81;5032757;28;4302;-66
2022/09/03 00:31:44;;;;;;;;;;;;;;;22.36;49.89;101431.56;5040660;28;3993;-66
2022/09/03 00:34:13;;;;;;;;;;;;;;;22.36;49.91;101436.59;5024245;28;4345;-66
2022/09/03 00:36:41;;;;;;;;;;;;;;;22.35;49.73;101435.81;5048919;28;4222;-66
2022/09/03 00:39:14;;;;;;;;;;;;;;;22.35;50.09;101435.81;5035144;28;4083;-66
2022/09/03 00:41:53;;;;;;;;;;;;;;;22.37;50.01;101438.06;5028124;28;4182;-66
2022/09/03 00:44:30;;;;;;;;;;;;;;;22.34;49.88;101433.59;5033686;28;4181;-67
2022/09/03 00:47:01;;;;;;;;;;;;;;;22.36;50.05;101437.31;5050742;28;4219;-66
2022/09/03 00:49:41;;;;;;;;;;;;;;;22.34;49.92;101427.84;5050335;28;4135;-66
2022/09/03 00:52:12;;;;;;;;;;;;;;;22.33;50.12;101423.44;5036065;28;4050;-65
2022/09/03 00:54:41;;;;;;;;;;;;;;;22.32;50.19;101419.81;5037871;28;4251;-65
2022/09/03 00:57:15;;;;;;;;;;;;;;;22.33;49.92;101420.56;5041069;28;4067;-65
2022/09/03 00:59:57;;;;;;;;;;;;;;;22.34;50.08;101424.94;5054298;28;4426;-65
2022/09/03 01:02:32;;;;;;;;;;;;;;;22.34;50.21;101411.25;5038509;28;4056;-65
2022/09/03 01:04:59;;;;;;;;;;;;;;;22.32;50.01;101419.81;5054631;28;4289;-65
2022/09/03 01:07:30;;;;;;;;;;;;;;;22.32;50.00;101416.94;5040891;28;3992;-65
2022/09/03 01:10:10;;;;;;;;;;;;;;;22.32;50.20;101419.06;5037165;28;4212;-65
2022/09/03 01:12:36;;;;;;;;;;;;;;;22.32;50.14;101414.03;5038381;28;4075;-65
2022/09/03 01:15:06;;;;;;;;;;;;;;;22.32;50.14;101419.06;5036317;28;4344;-65
2022/09/03 01:17:48;;;;;;;;;;;;;;;22.31;49.94;101414.69;5049756;28;5424;-66
2022/09/03 01:20:21;;;;;;;;;;;;;;;22.31;50.28;101412.56;5033762;28;4190;-66
2022/09/03 01:22:53;;;;;;;;;;;;;;;22.30;50.13;101416.84;5050811;28;4154;-65
2022/09/03 01:25:30;;;;;;;;;;;;;;;22.30;50.05;101410.31;5033313;28;4631;-65
2022/09/03 01:28:13;;;;;;;;;;;;;;;22.30;50.21;101408.19;5036767;28;4076;-66
2022/09/03 01:30:40;;;;;;;;;;;;;;;22.30;50.24;101413.94;5016303;28;4219;-65
2022/09/03 01:33:12;;;;;;;;;;;;;;;22.30;49.97;101411.06;5033365;28;4867;-65
2022/09/03 01:35:43;;;;;;;;;;;;;;;22.29;50.33;101405.97;5046810;28;4270;-65
2022/09/03 01:38:26;;;;;;;;;;;;;;;22.29;50.26;101409.59;5016302;28;4115;-66
2022/09/03 01:40:52;;;;;;;;;;;;;;;22.31;49.97;101403.16;5030777;28;4211;-66
2022/09/03 01:43:22;;;;;;;;;;;;;;;22.30;50.14;101405.28;5040476;28;4183;-66
2022/09/03 01:45:52;;;;;;;;;;;;;;;22.30;50.23;101410.31;5033967;28;5763;-66
2022/09/03 01:48:29;;;;;;;;;;;;;;;22.30;50.32;101407.44;5028103;28;4246;-66
2022/09/03 01:51:15;;;;;;;;;;;;;;;22.30;50.16;101404.56;5047130;28;4167;-67
2022/09/03 01:53:51;;;;;;;;;;;;;;;22.30;50.12;101405.28;5033589;28;4347;-63
2022/09/03 01:56:24;;;;;;;;;;;;;;;22.30;50.34;101410.31;5039616;28;4158;-66
2022/09/03 01:59:02;;;;;;;;;;;;;;;22.29;50.30;101408.84;5038479;28;4165;-65
2022/09/03 02:01:29;;;;;;;;;;;;;;;22.28;50.23;101401.56;5034135;28;4226;-66
2022/09/03 02:03:58;;;;;;;;;;;;;;;22.30;50.21;101398.78;5047352;28;4235;-66
2022/09/03 02:06:25;;;;;;;;;;;;;;;22.29;50.02;101408.84;5049735;28;4342;-66
2022/09/03 02:08:52;;;;;;;;;;;;;;;22.29;50.24;101409.59;5029111;28;4575;-65
2022/09/03 02:11:18;;;;;;;;;;;;;;;22.28;50.31;101413.13;5034855;28;5413;-66
2022/09/03 02:13:51;;;;;;;;;;;;;;;22.28;50.26;101407.34;5036295;28;5299;-64
2022/09/03 02:16:19;;;;;;;;;;;;;;;22.28;50.37;101407.34;5051827;28;4169;-65
2022/09/03 02:18:46;;;;;;;;;;;;;;;22.28;50.30;101410.97;5035534;28;4238;-65
2022/09/03 02:21:14;;;;;;;;;;;;;;;22.28;50.27;101407.34;5039288;28;4366;-66
2022/09/03 02:23:40;;;;;;;;;;;;;;;22.27;50.35;101412.38;5039019;28;4241;-65
2022/09/03 02:26:07;;;;;;;;;;;;;;;22.27;50.31;101414.53;5041545;28;4197;-65
2022/09/03 02:28:33;;;;;;;;;;;;;;;22.26;50.05;101410.88;5034090;28;5472;-65
2022/09/03 02:31:00;;;;;;;;;;;;;;;22.26;50.32;101410.88;5038175;28;4207;-65
2022/09/03 02:33:26;;;;;;;;;;;;;;;22.28;49.92;101418.88;5032495;28;4078;-65
2022/09/03 02:35:52;;;;;;;;;;;;;;;22.27;50.18;101411.63;5031426;28;4237;-65
2022/09/03 02:38:20;;;;;;;;;;;;;;;22.26;50.18;101415.91;5024829;28;5144;-65
2022/09/03 02:40:46;;;;;;;;;;;;;;;22.26;50.35;101405.09;5035024;28;4200;-65
2022/09/03 02:43:17;;;;;;;;;;;;;;;22.25;50.23;101402.88;5036894;28;4177;-65
2022/09/03 02:45:46;;;;;;;;;;;;;;;22.26;50.33;101407.25;5034243;28;4520;-65
2022/09/03 02:48:12;;;;;;;;;;;;;;;22.26;50.28;101407.25;5050151;28;5524;-66
2022/09/03 02:50:39;;;;;;;;;;;;;;;22.24;50.40;101402.16;5037427;28;4177;-65
2022/09/03 02:53:06;;;;;;;;;;;;;;;22.26;50.41;101418.78;5033106;28;4343;-65
2022/09/03 02:55:32;;;;;;;;;;;;;;;22.26;50.24;101416.63;5031318;28;4218;-65
2022/09/03 02:57:59;;;;;;;;;;;;;;;22.25;50.41;101420.19;5034273;28;4085;-65
2022/09/03 03:00:27;;;;;;;;;;;;;;;22.25;50.42;101408.66;5025795;28;4077;-65
2022/09/03 03:02:54;;;;;;;;;;;;;;;22.24;50.13;101407.91;5015758;28;5320;-65
2022/09/03 03:05:29;;;;;;;;;;;;;;;22.25;50.48;101408.66;5015761;28;4233;-66
2022/09/03 03:07:57;;;;;;;;;;;;;;;22.25;50.28;101400.00;5043808;28;4266;-65
2022/09/03 03:10:23;;;;;;;;;;;;;;;22.25;50.24;101402.88;5006926;28;4237;-66
2022/09/03 03:12:50;;;;;;;;;;;;;;;22.24;50.39;101407.16;5016173;28;4210;-65
2022/09/03 03:15:16;;;;;;;;;;;;;;;22.24;50.26;101410.03;5015628;28;4231;-65
2022/09/03 03:17:43;;;;;;;;;;;;;;;22.24;50.36;101412.91;5014869;28;4298;-65
2022/09/03 03:20:09;;;;;;;;;;;;;;;22.24;50.44;101412.91;5011597;28;5476;-66
2022/09/03 03:22:35;;;;;;;;;;;;;;;22.24;50.20;101415.78;5006221;28;4394;-65
2022/09/03 03:25:02;;;;;;;;;;;;;;;22.24;50.43;101418.69;5013572;28;4166;-65
2022/09/03 03:27:28;;;;;;;;;;;;;;;22.23;50.19;101414.31;5014566;28;4482;-65
2022/09/03 03:29:54;;;;;;;;;;;;;;;22.22;50.48;101410.69;5013811;28;5282;-65
2022/09/03 03:32:21;;;;;;;;;;;;;;;22.22;50.41;101416.47;5014504;28;5166;-65
2022/09/03 03:34:47;;;;;;;;;;;;;;;22.22;50.57;101412.81;5014438;28;4239;-65
2022/09/03 03:37:14;;;;;;;;;;;;;;;22.21;50.33;101417.09;5037980;28;4417;-65
2022/09/03 03:39:40;;;;;;;;;;;;;;;22.21;50.17;101423.63;5030987;28;4228;-65
2022/09/03 03:42:06;;;;;;;;;;;;;;;22.20;50.37;101419.22;5024099;28;6361;-65
2022/09/03 03:44:33;;;;;;;;;;;;;;;22.22;50.46;101424.34;5035098;28;4126;-65
2022/09/03 03:46:59;;;;;;;;;;;;;;;22.22;50.49;101421.47;5035687;28;4204;-65
2022/09/03 03:49:26;;;;;;;;;;;;;;;22.21;50.46;101423.63;5035154;28;4271;-65
2022/09/03 03:51:52;;;;;;;;;;;;;;;22.21;50.18;101428.63;5034228;28;4420;-65
2022/09/03 03:54:18;;;;;;;;;;;;;;;22.20;50.21;101424.25;5036586;28;4223;-66
2022/09/03 03:56:45;;;;;;;;;;;;;;;22.21;50.43;101422.84;5034628;28;4320;-64
2022/09/03 03:59:21;;;;;;;;;;;;;;;22.20;50.55;101421.38;5031705;28;4178;-65
2022/09/03 04:01:49;;;;;;;;;;;;;;;22.18;50.46;101422.75;5033973;28;4209;-65
2022/09/03 04:04:15;;;;;;;;;;;;;;;22.20;50.53;101424.25;5036783;28;4155;-66
2022/09/03 04:06:41;;;;;;;;;;;;;;;22.18;50.30;101431.41;5031413;28;4236;-65
2022/09/03 04:09:08;;;;;;;;;;;;;;;22.20;50.36;101424.25;5031741;28;4245;-65
2022/09/03 04:11:34;;;;;;;;;;;;;;;22.19;50.59;101429.25;5036098;28;4243;-65
2022/09/03 04:14:01;;;;;;;;;;;;;;;22.20;50.37;101424.25;5036331;28;3990;-65
2022/09/03 04:16:27;;;;;;;;;;;;;;;22.18;50.34;101428.50;5032993;28;4268;-67
2022/09/03 04:18:54;;;;;;;;;;;;;;;22.15;50.61;101429.81;5034583;28;6611;-65
2022/09/03 04:21:21;;;;;;;;;;;;;;;22.15;49.93;101426.94;5031704;28;3982;-65
2022/09/03 04:23:48;;;;;;;;;;;;;;;22.17;49.99;101427.03;5034150;28;5368;-65
2022/09/03 04:26:15;;;;;;;;;;;;;;;22.18;50.07;101422.75;5042932;28;4125;-65
2022/09/03 04:28:41;;;;;;;;;;;;;;;22.20;50.13;101412.72;5039185;28;4189;-64
2022/09/03 04:31:08;;;;;;;;;;;;;;;22.20;50.14;101418.50;5040114;28;4570;-65
2022/09/03 04:33:35;;;;;;;;;;;;;;;22.18;50.40;101416.97;5040182;28;5516;-65
2022/09/03 04:36:11;;;;;;;;;;;;;;;22.18;50.40;101416.97;5036202;28;5217;-65
2022/09/03 04:38:39;;;;;;;;;;;;;;;22.18;50.66;101411.22;5018345;28;5313;-65
2022/09/03 04:41:06;;;;;;;;;;;;;;;22.17;50.80;101414.72;5020247;28;5266;-64
2022/09/03 04:43:32;;;;;;;;;;;;;;;22.17;50.52;101412.63;5019419;28;4138;-65
2022/09/03 04:45:59;;;;;;;;;;;;;;;22.16;50.55;101419.75;5016863;28;5346;-65
2022/09/03 04:48:26;;;;;;;;;;;;;;;22.16;50.38;101419.75;5011997;28;4252;-65
2022/09/03 04:50:53;;;;;;;;;;;;;;;22.15;50.56;101420.41;5018701;28;4521;-65
2022/09/03 04:53:19;;;;;;;;;;;;;;;22.15;50.71;101418.28;5022020;28;5328;-65
2022/09/03 04:55:45;;;;;;;;;;;;;;;22.15;50.55;101418.28;5017071;28;4182;-66
2022/09/03 04:58:12;;;;;;;;;;;;;;;22.14;50.57;101427.56;5018752;28;4260;-65
2022/09/03 05:00:38;;;;;;;;;;;;;;;22.13;50.79;101421.06;5019377;28;5256;-65
2022/09/03 05:03:05;;;;;;;;;;;;;;;22.14;50.68;101428.31;5019202;28;4195;-65
2022/09/03 05:05:32;;;;;;;;;;;;;;;22.13;50.56;101431.88;5017370;28;4219;-65
2022/09/03 05:08:00;;;;;;;;;;;;;;;22.12;50.62;101427.47;5014716;28;4171;-65
2022/09/03 05:10:26;;;;;;;;;;;;;;;22.12;50.88;101431.09;5013143;28;4229;-65
2022/09/03 05:12:59;;;;;;;;;;;;;;;22.12;50.85;101425.34;5016015;28;4280;-65
2022/09/03 05:15:26;;;;;;;;;;;;;;;22.12;50.95;101419.56;5012819;28;4202;-65
2022/09/03 05:17:56;;;;;;;;;;;;;;;22.12;50.94;101425.34;5014541;28;5464;-64
2022/09/03 05:20:23;;;;;;;;;;;;;;;22.12;50.73;101422.44;5019680;28;4158;-66
2022/09/03 05:22:49;;;;;;;;;;;;;;;22.12;50.88;101428.22;5015809;28;6986;-66
2022/09/03 05:25:15;;;;;;;;;;;;;;;22.12;50.63;101431.09;5007478;28;4240;-67
2022/09/03 05:27:42;;;;;;;;;;;;;;;22.12;50.88;101436.13;5017382;28;5281;-66
2022/09/03 05:30:09;;;;;;;;;;;;;;;22.11;50.86;101426.00;5017641;28;4174;-67
2022/09/03 05:32:35;;;;;;;;;;;;;;;22.11;50.85;101432.50;5016533;28;4234;-67
2022/09/03 05:35:01;;;;;;;;;;;;;;;22.13;50.73;101432.59;5015010;28;4212;-68
2022/09/03 05:37:28;;;;;;;;;;;;;;;22.11;50.84;101429.63;5016690;28;4244;-67
2022/09/03 05:39:54;;;;;;;;;;;;;;;22.14;50.85;101422.53;5014301;28;4208;-67
2022/09/03 05:42:21;;;;;;;;;;;;;;;22.12;50.81;101430.34;5015744;28;5416;-67
2022/09/03 05:44:48;;;;;;;;;;;;;;;22.14;50.69;101427.56;5013922;28;5335;-67
2022/09/03 05:47:15;;;;;;;;;;;;;;;22.13;50.80;101432.59;5017046;28;5383;-67
2022/09/03 05:49:41;;;;;;;;;;;;;;;22.15;50.64;101435.59;5013883;28;5448;-66
2022/09/03 05:52:08;;;;;;;;;;;;;;;22.12;50.84;101421.72;5015618;28;4230;-66
2022/09/03 05:54:35;;;;;;;;;;;;;;;22.13;50.94;101432.59;5014186;28;5535;-67
2022/09/03 05:57:01;;;;;;;;;;;;;;;22.13;50.74;101438.38;5015901;28;4189;-67
2022/09/03 05:59:27;;;;;;;;;;;;;;;22.13;50.64;101444.16;5016632;28;4203;-67
2022/09/03 06:01:54;;;;;;;;;;;;;;;22.12;50.85;101430.34;5015017;28;4217;-67
2022/09/03 06:04:25;;;;;;;;;;;;;;;22.13;50.88;101438.38;5013345;28;4141;-67
2022/09/03 06:06:51;;;;;;;;;;;;;;;22.13;50.62;101438.38;5011259;28;4200;-67
2022/09/03 06:09:18;;;;;;;;;;;;;;;22.12;50.68;101433.97;5013998;28;4234;-65
2022/09/03 06:11:45;;;;;;;;;;;;;;;22.11;50.85;101435.38;5014852;28;5245;-67
2022/09/03 06:14:12;;;;;;;;;;;;;;;22.12;50.81;101436.88;5018746;28;4064;-66
2022/09/03 06:16:39;;;;;;;;;;;;;;;22.12;50.66;101431.09;5010064;28;4421;-67
2022/09/03 06:19:08;;;;;;;;;;;;;;;22.12;50.49;101431.09;5013102;28;4203;-67
2022/09/03 06:21:41;;;;;;;;;;;;;;;22.11;50.77;101423.84;5010090;28;4245;-67
2022/09/03 06:24:09;;;;;;;;;;;;;;;22.12;50.70;101430.34;5031990;28;4623;-67
2022/09/03 06:26:37;;;;;;;;;;;;;;;22.12;50.84;101427.47;5029483;28;4354;-67
2022/09/03 06:29:04;;;;;;;;;;;;;;;22.10;50.95;101433.88;5033782;28;4183;-66
2022/09/03 06:31:30;;;;;;;;;;;;;;;22.10;50.60;101436.03;5034073;28;4182;-67
2022/09/03 06:33:57;;;;;;;;;;;;;;;22.10;50.99;101441.78;5031678;28;4320;-68
2022/09/03 06:36:29;;;;;;;;;;;;;;;22.09;50.97;101446.81;5031780;28;5348;-66
2022/09/03 06:38:55;;;;;;;;;;;;;;;22.09;51.00;101443.94;5033327;28;4214;-68
2022/09/03 06:41:25;;;;;;;;;;;;;;;22.11;50.93;101444.03;5034591;28;4267;-68
2022/09/03 06:43:58;;;;;;;;;;;;;;;22.10;50.73;101451.19;5033882;28;5432;-67
2022/09/03 06:46:24;;;;;;;;;;;;;;;22.10;51.01;101439.66;5033839;28;4069;-67
2022/09/03 06:48:51;;;;;;;;;;;;;;;22.10;50.71;101445.41;5031344;28;4224;-67
2022/09/03 06:51:23;;;;;;;;;;;;;;;22.10;50.96;101445.41;5031787;28;4066;-66
2022/09/03 06:53:50;;;;;;;;;;;;;;;22.09;51.08;101446.81;5033038;28;4217;-66
2022/09/03 06:56:17;;;;;;;;;;;;;;;22.10;50.81;101447.56;5033820;28;4229;-66
2022/09/03 06:58:44;;;;;;;;;;;;;;;22.11;50.87;101452.69;5033226;28;6300;-66
2022/09/03 07:01:14;;;;;;;;;;;;;;;22.09;50.95;101440.31;5029383;28;4265;-66
2022/09/03 07:03:41;;;;;;;;;;;;;;;22.07;50.93;101443.84;5029181;28;4304;-65
2022/09/03 07:06:09;;;;;;;;;;;;;;;22.06;51.14;101451.00;5032154;28;4249;-66
2022/09/03 07:08:35;;;;;;;;;;;;;;;22.06;51.11;101444.47;5024715;28;5316;-67
2022/09/03 07:11:07;;;;;;;;;;;;;;;22.06;50.98;101445.25;5030339;28;5271;-67
2022/09/03 07:13:34;;;;;;;;;;;;;;;22.06;50.80;101439.47;5025010;28;4155;-66
2022/09/03 07:16:01;;;;;;;;;;;;;;;22.07;51.02;101443.84;5033122;28;4008;-66
2022/09/03 07:18:28;;;;;;;;;;;;;;;22.07;51.02;101449.59;5033585;28;4159;-67
2022/09/03 07:20:59;;;;;;;;;;;;;;;22.07;51.02;101458.25;5025402;28;4253;-66
2022/09/03 07:23:25;;;;;;;;;;;;;;;22.05;51.11;101455.28;5032624;28;4153;-66
2022/09/03 07:25:53;;;;;;;;;;;;;;;22.06;51.03;101453.13;5032712;28;4028;-67
2022/09/03 07:28:20;;;;;;;;;;;;;;;22.03;50.46;101455.16;5037976;28;3988;-66
2022/09/03 07:30:47;;;;;;;;;;;;;;;22.02;50.67;101462.34;5038665;28;4254;-61
2022/09/03 07:33:13;;;;;;;;;;;;;;;22.12;50.25;101459.94;5030622;28;4193;-63
2022/09/03 07:35:39;;;;;;;;;;;;;;;22.12;50.17;101459.19;5034215;28;4122;-64
2022/09/03 07:38:06;;;;;;;;;;;;;;;22.08;49.75;101453.22;5033325;28;4128;-65
2022/09/03 07:40:33;;;;;;;;;;;;;;;22.08;49.61;101456.88;5026433;28;4227;-65
2022/09/03 07:43:02;;;;;;;;;;;;;;;22.06;49.45;101456.78;5030913;28;4216;-65
2022/09/03 07:45:28;;;;;;;;;;;;;;;22.06;49.23;101462.56;5033719;28;4182;-64
2022/09/03 07:47:55;;;;;;;;;;;;;;;22.06;48.96;101467.56;5034675;28;4129;-64
2022/09/03 07:50:22;;;;;;;;;;;;;;;22.04;49.28;101458.81;5034245;28;4529;-65
2022/09/03 07:52:48;;;;;;;;;;;;;;;22.04;49.02;101462.44;5030977;28;4384;-64
2022/09/03 07:55:15;;;;;;;;;;;;;;;22.07;48.47;101461.16;5033212;28;5322;-65
2022/09/03 07:57:41;;;;;;;;;;;;;;;22.08;49.17;101462.66;5031433;28;4224;-65
2022/09/03 08:00:08;;;;;;;;;;;;;;;22.00;48.19;101461.50;5032715;28;4199;-65
2022/09/03 08:02:36;;;;;;;;;;;;;;;21.94;48.65;101461.94;5035561;28;4251;-66
2022/09/03 08:05:03;;;;;;;;;;;;;;;22.01;48.79;101472.38;5031003;28;4405;-66
2022/09/03 08:07:29;;;;;;;;;;;;;;;22.07;49.03;101458.25;5030107;28;4409;-59
2022/09/03 08:09:56;;;;;;;;;;;;;;;22.09;49.15;101461.25;5032415;28;5277;-62
2022/09/03 08:12:22;;;;;;;;;;;;;;;22.12;48.89;101465.72;5037289;28;4186;-59
2022/09/03 08:14:50;;;;;;;;;;;;;;;22.11;49.05;101458.47;5035737;28;4287;-58
2022/09/03 08:17:16;;;;;;;;;;;;;;;21.98;47.78;101462.13;5027669;28;4235;-63
2022/09/03 08:19:44;;;;;;;;;;;;;;;21.93;47.16;101463.34;5026750;28;4248;-58
2022/09/03 08:22:11;;;;;;;;;;;;;;;20.45;45.63;101458.47;5033172;28;4286;-58
2022/09/03 08:24:38;;;;;;;;;;;;;;;19.88;47.90;101458.13;5030355;28;4057;-62
2022/09/03 08:27:04;;;;;;;;;;;;;;;19.31;49.13;101457.63;5031018;28;4286;-63
2022/09/03 08:29:30;;;;;;;;;;;;;;;19.06;49.47;101450.44;5030735;28;4277;-63
2022/09/03 08:31:57;;;;;;;;;;;;;;;19.60;49.83;101449.31;5034657;28;4219;-63
2022/09/03 08:34:25;;;;;;;;;;;;;;;19.68;48.33;101454.81;5027388;28;5338;-63
2022/09/03 08:36:53;;;;;;;;;;;;;;;19.55;49.68;101459.09;5025490;28;5250;-63
2022/09/03 08:39:19;;;;;;;;;;;;;;;19.82;49.24;101446.31;5030713;28;4096;-64
2022/09/03 08:41:59;;;;;;;;;;;;;;;19.60;49.29;101449.31;5031021;28;4225;-63
2022/09/03 08:44:30;;;;;;;;;;;;;;;19.65;49.23;101445.34;5035796;28;4243;-63
2022/09/03 08:47:09;;;;;;;;;;;;;;;19.93;48.20;101441.88;5032381;28;5421;-63
2022/09/03 08:49:45;;;;;;;;;;;;;;;19.50;48.56;101437.25;5048141;28;4241;-60
2022/09/03 08:52:35;;;;;;;;;;;;;;;19.35;48.67;101438.50;5026497;28;4176;-62
2022/09/03 08:55:06;;;;;;;;;;;;;;;19.77;48.64;101433.06;4999601;28;4194;-63
2022/09/03 08:57:35;;;;;;;;;;;;;;;20.13;48.42;101439.41;5023940;28;5328;-62
2022/09/03 09:00:02;;;;;;;;;;;;;;;19.82;48.36;101435.53;5045852;28;4239;-63
2022/09/03 09:02:47;;;;;;;;;;;;;;;19.77;48.23;101430.19;5022381;28;4197;-63
2022/09/03 09:05:16;;;;;;;;;;;;;;;20.16;48.25;101438.13;5039947;28;4143;-63
2022/09/03 09:07:48;;;;;;;;;;;;;;;20.67;47.77;101432.34;5040097;28;4221;-64
2022/09/03 09:10:19;;;;;;;;;;;;;;;20.92;47.82;101438.03;5036227;28;5252;-65
2022/09/03 09:13:08;;;;;;;;;;;;;;;21.09;47.79;101428.09;5025220;28;4222;-65
2022/09/03 09:15:48;;;;;;;;;;;;;;;21.18;47.66;101432.16;5046036;28;5501;-61
2022/09/03 09:18:22;;;;;;;;;;;;;;;21.29;48.15;101425.53;5014795;28;4162;-67
2022/09/03 09:20:53;;;;;;;;;;;;;;;21.37;47.95;101427.34;5045175;28;5283;-65
2022/09/03 09:23:28;;;;;;;;;;;;;;;21.41;47.78;101413.19;5031087;28;4220;-65
2022/09/03 09:25:54;;;;;;;;;;;;;;;21.45;48.02;101417.00;5040071;28;5303;-66
2022/09/03 09:28:21;;;;;;;;;;;;;;;21.47;48.11;101417.13;5043403;28;4285;-65
2022/09/03 09:30:48;;;;;;;;;;;;;;;21.51;48.16;101422.34;5030207;28;4249;-65
2022/09/03 09:33:16;;;;;;;;;;;;;;;21.52;48.25;101409.44;5051839;28;5255;-66
2022/09/03 09:35:42;;;;;;;;;;;;;;;21.56;48.24;101401.00;5023623;28;5504;-65
2022/09/03 09:38:09;;;;;;;;;;;;;;;21.60;48.20;101409.84;5029627;28;4171;-65
2022/09/03 09:40:37;;;;;;;;;;;;;;;21.66;48.16;101398.59;5045821;28;4246;-64
2022/09/03 09:43:14;;;;;;;;;;;;;;;21.70;48.29;101393.03;5034308;28;4406;-68
2022/09/03 09:45:42;;;;;;;;;;;;;;;21.69;47.99;101397.31;5007118;28;4212;-70
2022/09/03 09:48:12;;;;;;;;;;;;;;;21.71;47.98;101391.63;5013928;28;4631;-74
2022/09/03 09:50:39;;;;;;;;;;;;;;;21.73;47.73;101391.75;5043953;28;4065;-72
2022/09/03 09:53:13;;;;;;;;;;;;;;;21.74;47.84;101404.78;5041463;28;4164;-72
2022/09/03 09:55:52;;;;;;;;;;;;;;;21.77;47.45;101390.47;5033988;28;5302;-72
2022/09/03 09:58:19;;;;;;;;;;;;;;;21.79;47.50;101387.69;5029916;28;5408;-72
2022/09/03 10:00:55;;;;;;;;;;;;;;;21.81;47.55;101384.91;5034475;28;4216;-71
2022/09/03 10:03:25;;;;;;;;;;;;;;;21.81;47.51;101382.03;5035065;28;4076;-72
2022/09/03 10:05:57;;;;;;;;;;;;;;;21.82;47.77;101375.59;5033399;28;4231;-71
2022/09/03 10:08:23;;;;;;;;;;;;;;;21.84;47.62;101377.84;5035393;28;4251;-72
2022/09/03 10:10:50;;;;;;;;;;;;;;;21.86;47.54;101381.56;5035954;28;4361;-72
2022/09/03 10:13:28;;;;;;;;;;;;;;;21.89;47.33;101391.06;5036300;28;4225;-72
2022/09/03 10:16:00;;;;;;;;;;;;;;;21.89;47.23;101379.50;5048111;28;5419;-72
2022/09/03 10:18:35;;;;;;;;;;;;;;;21.90;47.39;101381.03;5033574;28;4231;-72
2022/09/03 10:21:06;;;;;;;;;;;;;;;21.91;47.37;101370.97;5051245;28;4217;-72
2022/09/03 10:23:34;;;;;;;;;;;;;;;21.93;46.99;101379.72;5049518;28;4435;-72
2022/09/03 10:26:06;;;;;;;;;;;;;;;21.93;46.74;101373.94;5049134;28;5267;-72
2022/09/03 10:28:33;;;;;;;;;;;;;;;21.94;47.16;101373.31;5038342;28;4195;-71
2022/09/03 10:31:18;;;;;;;;;;;;;;;21.96;46.74;101372.66;5047540;28;5508;-71
2022/09/03 10:33:50;;;;;;;;;;;;;;;21.98;46.73;101372.00;5039157;28;4311;-71
2022/09/03 10:36:18;;;;;;;;;;;;;;;21.97;46.50;101362.63;5046445;28;4161;-72
2022/09/03 10:38:46;;;;;;;;;;;;;;;21.97;46.53;101362.63;5034116;28;4165;-72
2022/09/03 10:41:28;;;;;;;;;;;;;;;21.96;46.49;101361.84;5035558;28;4222;-72
2022/09/03 10:44:00;;;;;;;;;;;;;;;21.99;46.53;101365.59;5039173;28;5493;-72
2022/09/03 10:46:27;;;;;;;;;;;;;;;22.00;46.49;101357.69;5047178;28;4412;-71
2022/09/03 10:49:12;;;;;;;;;;;;;;;22.02;46.48;101369.31;5036799;28;4206;-70
2022/09/03 10:51:41;;;;;;;;;;;;;;;21.99;46.43;101362.72;5031957;28;4263;-71
2022/09/03 10:54:14;;;;;;;;;;;;;;;21.99;46.85;101359.84;5036540;28;4164;-72
2022/09/03 10:57:00;;;;;;;;;;;;;;;21.98;46.92;101358.31;5030456;28;4183;-71
2022/09/03 10:59:31;;;;;;;;;;;;;;;21.99;46.80;101348.31;5029803;28;4236;-72
2022/09/03 11:02:00;;;;;;;;;;;;;;;22.00;47.04;101355.53;5046258;28;4188;-63
2022/09/03 11:04:48;;;;;;;;;;;;;;;21.99;46.80;101354.06;5026043;28;4646;-66
2022/09/03 11:07:15;;;;;;;;;;;;;;;21.99;45.91;101348.31;5034676;28;4213;-71
2022/09/03 11:09:45;;;;;;;;;;;;;;;22.00;45.57;101344.00;5028208;28;4160;-69
2022/09/03 11:12:15;;;;;;;;;;;;;;;22.02;45.70;101347.00;5038571;28;3946;-71
2022/09/03 11:14:45;;;;;;;;;;;;;;;22.03;45.46;101339.81;5032835;28;4218;-71
2022/09/03 11:17:22;;;;;;;;;;;;;;;22.06;45.14;101341.41;5017971;28;4177;-70
2022/09/03 11:19:53;;;;;;;;;;;;;;;22.06;44.66;101341.41;5013380;28;4212;-70
2022/09/03 11:22:21;;;;;;;;;;;;;;;22.06;44.88;101341.41;5006189;28;4203;-61
2022/09/03 11:24:50;;;;;;;;;;;;;;;22.09;45.21;101327.84;5038843;28;4148;-69
2022/09/03 11:27:35;;;;;;;;;;;;;;;22.12;45.49;101320.75;5041165;28;5274;-68
2022/09/03 11:30:08;;;;;;;;;;;;;;;22.37;47.31;101322.66;5001976;28;5506;-60
2022/09/03 11:32:51;;;;;;;;;;;;;;;22.22;45.40;101320.50;5001868;28;4239;-58
2022/09/03 11:35:24;;;;;;;;;;;;;;;22.16;45.96;101324.56;5043699;28;5269;-65
2022/09/03 11:37:56;;;;;;;;;;;;;;;22.12;45.85;101312.09;5029557;28;5272;-65
2022/09/03 11:40:28;;;;;;;;;;;;;;;22.14;45.85;101315.81;5010748;28;4243;-67
2022/09/03 11:43:03;;;;;;;;;;;;;;;22.15;45.83;101322.34;5033539;28;5306;-75
2022/09/03 11:45:30;;;;;;;;;;;;;;;22.22;46.43;101323.38;5022112;28;4434;-67
2022/09/03 11:47:56;;;;;;;;;;;;;;;22.24;46.52;101311.94;5017364;28;5283;-64
2022/09/03 11:50:23;;;;;;;;;;;;;;;22.29;47.11;101316.53;5028693;28;4151;-64
2022/09/03 11:52:52;;;;;;;;;;;;;;;22.27;47.09;101302.00;5032124;28;4108;-64
2022/09/03 11:55:31;;;;;;;;;;;;;;;22.28;47.45;101303.47;5033275;28;4280;-65
2022/09/03 11:58:17;;;;;;;;;;;;;;;22.30;47.33;101303.56;5005303;28;4390;-64
2022/09/03 12:00:44;;;;;;;;;;;;;;;22.32;47.61;101303.66;5036651;28;4253;-65
2022/09/03 12:03:13;;;;;;;;;;;;;;;22.30;47.68;101300.69;5008045;28;4406;-68
2022/09/03 12:05:58;;;;;;;;;;;;;;;22.26;47.75;101300.50;5036654;28;4338;-67
2022/09/03 12:08:39;;;;;;;;;;;;;;;22.20;47.62;101297.34;5035097;28;5277;-68
2022/09/03 12:11:12;;;;;;;;;;;;;;;22.18;47.93;101295.81;5049897;28;4193;-63
2022/09/03 12:13:51;;;;;;;;;;;;;;;22.17;47.57;101288.59;5049108;28;4317;-63
2022/09/03 12:16:21;;;;;;;;;;;;;;;22.17;47.88;101297.22;5034603;28;4168;-63
2022/09/03 12:18:51;;;;;;;;;;;;;;;22.17;47.93;101291.47;5038830;28;5310;-63
2022/09/03 12:21:18;;;;;;;;;;;;;;;22.16;47.84;101289.97;5036741;28;5141;-64
2022/09/03 12:23:48;;;;;;;;;;;;;;;22.16;48.00;101289.97;5032001;28;5190;-63
2022/09/03 12:26:18;;;;;;;;;;;;;;;22.17;47.78;101294.34;5034114;28;4193;-64
2022/09/03 12:28:52;;;;;;;;;;;;;;;22.17;47.82;101290.69;5050621;28;4043;-64
2022/09/03 12:31:23;;;;;;;;;;;;;;;22.17;48.16;101287.81;5035426;28;4258;-64
2022/09/03 12:34:13;;;;;;;;;;;;;;;22.17;48.07;101293.59;5037979;28;5252;-64
2022/09/03 12:36:41;;;;;;;;;;;;;;;22.16;48.30;101284.19;5033397;28;5395;-63
2022/09/03 12:39:17;;;;;;;;;;;;;;;22.16;48.17;101281.31;5034855;28;4079;-64
2022/09/03 12:42:03;;;;;;;;;;;;;;;22.17;48.04;101287.81;5036026;28;4100;-63
2022/09/03 12:44:30;;;;;;;;;;;;;;;22.16;48.30;101275.53;5048237;28;4274;-63
2022/09/03 12:47:00;;;;;;;;;;;;;;;22.16;48.02;101275.53;5036158;28;4189;-63
2022/09/03 12:49:48;;;;;;;;;;;;;;;22.16;48.30;101275.53;5020490;28;4208;-64
2022/09/03 12:52:19;;;;;;;;;;;;;;;22.16;48.37;101269.78;5019609;28;5244;-63
2022/09/03 12:55:05;;;;;;;;;;;;;;;22.15;48.39;101256.75;5032192;28;4345;-63
2022/09/03 12:57:33;;;;;;;;;;;;;;;22.16;48.18;101275.53;5018574;28;5317;-63
2022/09/03 13:00:01;;;;;;;;;;;;;;;22.16;48.05;101264.00;5048032;28;4158;-63
2022/09/03 13:02:29;;;;;;;;;;;;;;;22.15;48.36;101262.53;5031284;28;4248;-65